sensor_id;sensor_type;location;lat;lon;timestamp;temperature;humidity
7317;DHT22;3699;51.462;6.696;2022-12-29T00:02:26;12.20;99.90
7317;DHT22;3699;51.462;6.696;2022-12-29T00:04:52;12.00;99.90
7317;DHT22;3699;51.462;6.696;2022-12-29T00:07:20;12.00;99.90
7317;DHT22;3699;51.462;6.696;2022-12-29T00:09:47;12.00;99.90
7317;DHT22;3699;51.462;6.696;2022-12-29T00:12:14;11.90;99.90
7317;DHT22;3699;51.462;6.696;2022-12-29T00:14:41;11.90;99.90
7317;DHT22;3699;51.462;6.696;2022-12-29T00:17:25;11.90;99.90
7317;DHT22;3699;51.462;6.696;2022-12-29T00:19:51;11.80;99.90
7317;DHT22;3699;51.462;6.696;2022-12-29T00:22:37;11.80;99.90
7317;DHT22;3699;51.462;6.696;2022-12-29T00:25:21;11.70;99.90
7317;DHT22;3699;51.462;6.696;2022-12-29T00:28:07;11.70;99.90
7317;DHT22;3699;51.462;6.696;2022-12-29T00:30:52;11.70;99.90
7317;DHT22;3699;51.462;6.696;2022-12-29T00:33:36;11.70;99.90
7317;DHT22;3699;51.462;6.696;2022-12-29T00:36:23;11.70;99.90
7317;DHT22;3699;51.462;6.696;2022-12-29T00:38:56;11.70;99.90
7317;DHT22;3699;51.462;6.696;2022-12-29T00:41:41;11.70;99.90
7317;DHT22;3699;51.462;6.696;2022-12-29T00:44:25;11.70;99.90
7317;DHT22;3699;51.462;6.696;2022-12-29T00:46:52;11.80;99.90
7317;DHT22;3699;51.462;6.696;2022-12-29T00:49:19;11.70;99.90
7317;DHT22;3699;51.462;6.696;2022-12-29T00:51:59;11.80;99.90
7317;DHT22;3699;51.462;6.696;2022-12-29T00:54:28;11.80;99.90
7317;DHT22;3699;51.462;6.696;2022-12-29T00:56:55;11.80;99.90
7317;DHT22;3699;51.462;6.696;2022-12-29T00:59:22;11.80;99.90
7317;DHT22;3699;51.462;6.696;2022-12-29T01:01:50;11.80;99.90
7317;DHT22;3699;51.462;6.696;2022-12-29T01:04:18;11.80;99.90
7317;DHT22;3699;51.462;6.696;2022-12-29T01:06:45;11.80;99.90
7317;DHT22;3699;51.462;6.696;2022-12-29T01:09:12;11.70;99.90
7317;DHT22;3699;51.462;6.696;2022-12-29T01:11:57;11.70;99.90
7317;DHT22;3699;51.462;6.696;2022-12-29T01:14:24;11.80;99.90
7317;DHT22;3699;51.462;6.696;2022-12-29T01:16:52;11.70;99.90
7317;DHT22;3699;51.462;6.696;2022-12-29T01:19:19;11.70;99.90
7317;DHT22;3699;51.462;6.696;2022-12-29T01:21:47;11.80;99.90
7317;DHT22;3699;51.462;6.696;2022-12-29T01:24:14;11.70;99.90
7317;DHT22;3699;51.462;6.696;2022-12-29T01:26:41;11.70;99.90
7317;DHT22;3699;51.462;6.696;2022-12-29T01:29:10;11.70;99.90
7317;DHT22;3699;51.462;6.696;2022-12-29T01:31:36;11.70;99.90
7317;DHT22;3699;51.462;6.696;2022-12-29T01:34:04;13.80;99.90
7317;DHT22;3699;51.462;6.696;2022-12-29T01:36:31;11.80;99.90
7317;DHT22;3699;51.462;6.696;2022-12-29T01:38:57;11.80;99.90
7317;DHT22;3699;51.462;6.696;2022-12-29T01:41:24;11.90;99.90
7317;DHT22;3699;51.462;6.696;2022-12-29T01:43:53;11.90;99.90
7317;DHT22;3699;51.462;6.696;2022-12-29T01:46:24;12.00;99.90
7317;DHT22;3699;51.462;6.696;2022-12-29T01:48:55;12.00;99.90
7317;DHT22;3699;51.462;6.696;2022-12-29T01:51:25;12.00;99.90
7317;DHT22;3699;51.462;6.696;2022-12-29T01:53:55;12.10;99.90
7317;DHT22;3699;51.462;6.696;2022-12-29T01:56:23;12.10;99.90
7317;DHT22;3699;51.462;6.696;2022-12-29T01:58:54;12.10;99.90
7317;DHT22;3699;51.462;6.696;2022-12-29T02:01:23;12.10;99.90
7317;DHT22;3699;51.462;6.696;2022-12-29T02:03:51;12.20;99.90
7317;DHT22;3699;51.462;6.696;2022-12-29T02:06:21;12.10;99.90
7317;DHT22;3699;51.462;6.696;2022-12-29T02:08:50;12.10;99.90
7317;DHT22;3699;51.462;6.696;2022-12-29T02:11:19;12.20;99.90
7317;DHT22;3699;51.462;6.696;2022-12-29T02:13:46;12.30;99.90
7317;DHT22;3699;51.462;6.696;2022-12-29T02:16:24;12.30;99.90
7317;DHT22;3699;51.462;6.696;2022-12-29T02:19:04;12.20;99.90
7317;DHT22;3699;51.462;6.696;2022-12-29T02:22:00;12.30;99.90
7317;DHT22;3699;51.462;6.696;2022-12-29T02:27:53;12.30;99.90
7317;DHT22;3699;51.462;6.696;2022-12-29T02:30:42;12.30;99.90
7317;DHT22;3699;51.462;6.696;2022-12-29T02:33:20;12.20;99.90
7317;DHT22;3699;51.462;6.696;2022-12-29T02:35:56;12.30;99.90
7317;DHT22;3699;51.462;6.696;2022-12-29T02:38:48;12.30;99.90
7317;DHT22;3699;51.462;6.696;2022-12-29T02:41:21;12.30;99.90
7317;DHT22;3699;51.462;6.696;2022-12-29T02:43:53;12.30;99.90
7317;DHT22;3699;51.462;6.696;2022-12-29T02:46:27;12.30;99.90
7317;DHT22;3699;51.462;6.696;2022-12-29T02:49:03;12.30;99.90
7317;DHT22;3699;51.462;6.696;2022-12-29T02:51:37;12.30;99.90
7317;DHT22;3699;51.462;6.696;2022-12-29T02:54:05;12.30;99.90
7317;DHT22;3699;51.462;6.696;2022-12-29T02:56:50;12.30;99.90
7317;DHT22;3699;51.462;6.696;2022-12-29T02:59:17;12.30;99.90
7317;DHT22;3699;51.462;6.696;2022-12-29T03:01:59;12.30;99.90
7317;DHT22;3699;51.462;6.696;2022-12-29T03:04:58;12.30;99.90
7317;DHT22;3699;51.462;6.696;2022-12-29T03:07:35;12.30;99.90
7317;DHT22;3699;51.462;6.696;2022-12-29T03:10:15;12.30;99.90
7317;DHT22;3699;51.462;6.696;2022-12-29T03:12:50;12.30;99.90
7317;DHT22;3699;51.462;6.696;2022-12-29T03:15:43;12.30;99.90
7317;DHT22;3699;51.462;6.696;2022-12-29T03:18:34;12.30;99.90
7317;DHT22;3699;51.462;6.696;2022-12-29T03:21:07;12.30;99.90
7317;DHT22;3699;51.462;6.696;2022-12-29T03:23:37;12.30;99.90
7317;DHT22;3699;51.462;6.696;2022-12-29T03:26:10;12.30;99.90
7317;DHT22;3699;51.462;6.696;2022-12-29T03:28:41;12.30;99.90
7317;DHT22;3699;51.462;6.696;2022-12-29T03:31:10;12.50;99.90
7317;DHT22;3699;51.462;6.696;2022-12-29T03:33:41;12.30;99.90
7317;DHT22;3699;51.462;6.696;2022-12-29T03:36:11;12.30;99.90
7317;DHT22;3699;51.462;6.696;2022-12-29T03:38:45;12.40;99.90
7317;DHT22;3699;51.462;6.696;2022-12-29T03:41:17;12.40;99.90
7317;DHT22;3699;51.462;6.696;2022-12-29T03:43:45;12.40;99.90
7317;DHT22;3699;51.462;6.696;2022-12-29T03:46:12;12.40;99.90
7317;DHT22;3699;51.462;6.696;2022-12-29T03:48:40;12.40;99.90
7317;DHT22;3699;51.462;6.696;2022-12-29T03:51:06;12.40;99.90
7317;DHT22;3699;51.462;6.696;2022-12-29T03:53:33;12.40;99.90
7317;DHT22;3699;51.462;6.696;2022-12-29T03:56:00;12.40;99.90
7317;DHT22;3699;51.462;6.696;2022-12-29T03:58:27;12.40;99.90
7317;DHT22;3699;51.462;6.696;2022-12-29T04:00:53;12.50;99.90
7317;DHT22;3699;51.462;6.696;2022-12-29T04:03:20;12.40;99.90
7317;DHT22;3699;51.462;6.696;2022-12-29T04:05:48;12.40;99.90
7317;DHT22;3699;51.462;6.696;2022-12-29T04:08:15;12.40;99.90
7317;DHT22;3699;51.462;6.696;2022-12-29T04:10:41;12.30;99.90
7317;DHT22;3699;51.462;6.696;2022-12-29T04:13:08;12.30;99.90
7317;DHT22;3699;51.462;6.696;2022-12-29T04:15:35;12.30;99.90
7317;DHT22;3699;51.462;6.696;2022-12-29T04:18:01;12.30;99.90
7317;DHT22;3699;51.462;6.696;2022-12-29T04:20:28;12.30;99.90
7317;DHT22;3699;51.462;6.696;2022-12-29T04:23:14;12.20;99.90
7317;DHT22;3699;51.462;6.696;2022-12-29T04:25:40;12.20;99.90
7317;DHT22;3699;51.462;6.696;2022-12-29T04:28:07;12.20;99.90
7317;DHT22;3699;51.462;6.696;2022-12-29T04:30:34;12.20;99.90
7317;DHT22;3699;51.462;6.696;2022-12-29T04:33:00;12.20;99.90
7317;DHT22;3699;51.462;6.696;2022-12-29T04:35:27;12.50;99.90
7317;DHT22;3699;51.462;6.696;2022-12-29T04:37:54;13.70;99.90
7317;DHT22;3699;51.462;6.696;2022-12-29T04:40:22;12.30;99.90
7317;DHT22;3699;51.462;6.696;2022-12-29T04:42:50;12.20;99.90
7317;DHT22;3699;51.462;6.696;2022-12-29T04:45:17;12.30;99.90
7317;DHT22;3699;51.462;6.696;2022-12-29T04:47:43;12.30;99.90
7317;DHT22;3699;51.462;6.696;2022-12-29T04:50:10;12.40;99.90
7317;DHT22;3699;51.462;6.696;2022-12-29T04:52:37;12.60;99.90
7317;DHT22;3699;51.462;6.696;2022-12-29T04:55:05;12.50;99.90
7317;DHT22;3699;51.462;6.696;2022-12-29T04:57:33;12.40;99.90
7317;DHT22;3699;51.462;6.696;2022-12-29T05:00:00;12.50;99.90
7317;DHT22;3699;51.462;6.696;2022-12-29T05:02:27;12.60;99.90
7317;DHT22;3699;51.462;6.696;2022-12-29T05:04:53;12.60;99.90
7317;DHT22;3699;51.462;6.696;2022-12-29T05:07:20;12.60;99.90
7317;DHT22;3699;51.462;6.696;2022-12-29T05:09:47;12.60;99.90
7317;DHT22;3699;51.462;6.696;2022-12-29T05:12:13;12.60;99.90
7317;DHT22;3699;51.462;6.696;2022-12-29T05:14:41;12.50;99.90
7317;DHT22;3699;51.462;6.696;2022-12-29T05:17:08;12.50;99.90
7317;DHT22;3699;51.462;6.696;2022-12-29T05:19:35;12.30;99.90
7317;DHT22;3699;51.462;6.696;2022-12-29T05:22:03;12.20;99.90
7317;DHT22;3699;51.462;6.696;2022-12-29T05:24:30;12.10;99.90
7317;DHT22;3699;51.462;6.696;2022-12-29T05:26:57;12.00;99.90
7317;DHT22;3699;51.462;6.696;2022-12-29T05:29:23;11.90;99.90
7317;DHT22;3699;51.462;6.696;2022-12-29T05:31:52;11.80;99.90
7317;DHT22;3699;51.462;6.696;2022-12-29T05:34:18;11.70;99.90
7317;DHT22;3699;51.462;6.696;2022-12-29T05:36:45;11.60;99.90
7317;DHT22;3699;51.462;6.696;2022-12-29T05:39:12;11.70;99.90
7317;DHT22;3699;51.462;6.696;2022-12-29T05:41:38;11.50;99.90
7317;DHT22;3699;51.462;6.696;2022-12-29T05:44:05;11.50;99.90
7317;DHT22;3699;51.462;6.696;2022-12-29T05:46:32;11.40;99.90
7317;DHT22;3699;51.462;6.696;2022-12-29T05:49:00;11.40;99.90
7317;DHT22;3699;51.462;6.696;2022-12-29T05:51:27;11.40;99.90
7317;DHT22;3699;51.462;6.696;2022-12-29T05:53:54;11.40;99.90
7317;DHT22;3699;51.462;6.696;2022-12-29T05:56:20;11.40;99.90
7317;DHT22;3699;51.462;6.696;2022-12-29T05:58:47;11.50;99.90
7317;DHT22;3699;51.462;6.696;2022-12-29T06:01:14;11.40;99.90
7317;DHT22;3699;51.462;6.696;2022-12-29T06:03:40;11.40;99.90
7317;DHT22;3699;51.462;6.696;2022-12-29T06:06:09;11.40;99.90
7317;DHT22;3699;51.462;6.696;2022-12-29T06:08:36;11.40;99.90
7317;DHT22;3699;51.462;6.696;2022-12-29T06:11:03;11.50;99.90
7317;DHT22;3699;51.462;6.696;2022-12-29T06:13:29;11.40;99.90
7317;DHT22;3699;51.462;6.696;2022-12-29T06:15:56;11.40;99.90
7317;DHT22;3699;51.462;6.696;2022-12-29T06:18:23;11.40;99.90
7317;DHT22;3699;51.462;6.696;2022-12-29T06:20:49;11.50;99.90
7317;DHT22;3699;51.462;6.696;2022-12-29T06:23:17;11.40;99.90
7317;DHT22;3699;51.462;6.696;2022-12-29T06:25:46;11.40;99.90
7317;DHT22;3699;51.462;6.696;2022-12-29T06:28:13;11.50;99.90
7317;DHT22;3699;51.462;6.696;2022-12-29T06:30:40;11.60;99.90
7317;DHT22;3699;51.462;6.696;2022-12-29T06:33:09;11.50;99.90
7317;DHT22;3699;51.462;6.696;2022-12-29T06:35:36;11.50;99.90
7317;DHT22;3699;51.462;6.696;2022-12-29T06:38:02;11.60;99.90
7317;DHT22;3699;51.462;6.696;2022-12-29T06:40:30;11.50;99.90
7317;DHT22;3699;51.462;6.696;2022-12-29T06:42:57;11.60;99.90
7317;DHT22;3699;51.462;6.696;2022-12-29T06:45:24;11.60;99.90
7317;DHT22;3699;51.462;6.696;2022-12-29T06:47:50;11.60;99.90
7317;DHT22;3699;51.462;6.696;2022-12-29T06:50:17;11.60;99.90
7317;DHT22;3699;51.462;6.696;2022-12-29T06:52:44;11.60;99.90
7317;DHT22;3699;51.462;6.696;2022-12-29T06:55:11;11.60;99.90
7317;DHT22;3699;51.462;6.696;2022-12-29T06:57:39;11.60;99.90
7317;DHT22;3699;51.462;6.696;2022-12-29T07:00:07;11.60;99.90
7317;DHT22;3699;51.462;6.696;2022-12-29T07:02:34;11.70;99.90
7317;DHT22;3699;51.462;6.696;2022-12-29T07:05:01;11.70;99.90
7317;DHT22;3699;51.462;6.696;2022-12-29T07:07:27;11.60;99.90
7317;DHT22;3699;51.462;6.696;2022-12-29T07:09:54;11.70;99.90
7317;DHT22;3699;51.462;6.696;2022-12-29T07:12:21;11.70;99.90
7317;DHT22;3699;51.462;6.696;2022-12-29T07:14:49;11.70;99.90
7317;DHT22;3699;51.462;6.696;2022-12-29T07:17:15;11.70;99.90
7317;DHT22;3699;51.462;6.696;2022-12-29T07:19:42;11.70;99.90
7317;DHT22;3699;51.462;6.696;2022-12-29T07:22:09;11.70;99.90
7317;DHT22;3699;51.462;6.696;2022-12-29T07:24:36;11.70;99.90
7317;DHT22;3699;51.462;6.696;2022-12-29T07:27:03;11.70;99.90
7317;DHT22;3699;51.462;6.696;2022-12-29T07:29:30;11.70;99.90
7317;DHT22;3699;51.462;6.696;2022-12-29T07:31:58;11.70;99.90
7317;DHT22;3699;51.462;6.696;2022-12-29T07:34:24;11.90;99.90
7317;DHT22;3699;51.462;6.696;2022-12-29T07:36:51;11.70;99.90
7317;DHT22;3699;51.462;6.696;2022-12-29T07:39:18;11.70;99.90
7317;DHT22;3699;51.462;6.696;2022-12-29T07:41:45;11.80;99.90
7317;DHT22;3699;51.462;6.696;2022-12-29T07:44:11;11.90;99.90
7317;DHT22;3699;51.462;6.696;2022-12-29T07:46:38;11.80;99.90
7317;DHT22;3699;51.462;6.696;2022-12-29T07:49:06;11.80;99.90
7317;DHT22;3699;51.462;6.696;2022-12-29T07:51:33;11.70;99.90
7317;DHT22;3699;51.462;6.696;2022-12-29T07:54:00;11.70;99.90
7317;DHT22;3699;51.462;6.696;2022-12-29T07:56:26;11.70;99.90
7317;DHT22;3699;51.462;6.696;2022-12-29T07:58:53;11.80;99.90
7317;DHT22;3699;51.462;6.696;2022-12-29T08:01:20;11.60;99.90
7317;DHT22;3699;51.462;6.696;2022-12-29T08:03:48;11.70;99.90
7317;DHT22;3699;51.462;6.696;2022-12-29T08:06:16;11.70;99.90
7317;DHT22;3699;51.462;6.696;2022-12-29T08:08:43;11.70;99.90
7317;DHT22;3699;51.462;6.696;2022-12-29T08:11:10;11.60;99.90
7317;DHT22;3699;51.462;6.696;2022-12-29T08:13:37;11.60;99.90
7317;DHT22;3699;51.462;6.696;2022-12-29T08:16:04;11.60;99.90
7317;DHT22;3699;51.462;6.696;2022-12-29T08:18:31;11.60;99.90
7317;DHT22;3699;51.462;6.696;2022-12-29T08:21:01;11.70;99.90
7317;DHT22;3699;51.462;6.696;2022-12-29T08:23:30;11.70;99.90
7317;DHT22;3699;51.462;6.696;2022-12-29T08:25:57;11.70;99.90
7317;DHT22;3699;51.462;6.696;2022-12-29T08:28:24;11.70;99.90
7317;DHT22;3699;51.462;6.696;2022-12-29T08:30:51;11.70;99.90
7317;DHT22;3699;51.462;6.696;2022-12-29T08:33:18;11.70;99.90
7317;DHT22;3699;51.462;6.696;2022-12-29T08:35:44;11.60;99.90
7317;DHT22;3699;51.462;6.696;2022-12-29T08:38:11;11.70;99.90
7317;DHT22;3699;51.462;6.696;2022-12-29T08:40:40;11.70;99.90
7317;DHT22;3699;51.462;6.696;2022-12-29T08:43:07;11.70;99.90
7317;DHT22;3699;51.462;6.696;2022-12-29T08:45:40;11.70;99.90
7317;DHT22;3699;51.462;6.696;2022-12-29T08:48:07;11.70;99.90
7317;DHT22;3699;51.462;6.696;2022-12-29T08:50:34;11.70;99.90
7317;DHT22;3699;51.462;6.696;2022-12-29T08:53:00;11.70;99.90
7317;DHT22;3699;51.462;6.696;2022-12-29T08:55:27;11.80;99.90
7317;DHT22;3699;51.462;6.696;2022-12-29T08:57:55;11.80;99.90
7317;DHT22;3699;51.462;6.696;2022-12-29T09:00:22;11.80;99.90
7317;DHT22;3699;51.462;6.696;2022-12-29T09:02:50;11.90;99.90
7317;DHT22;3699;51.462;6.696;2022-12-29T09:05:17;11.80;99.90
7317;DHT22;3699;51.462;6.696;2022-12-29T09:07:44;11.90;99.90
7317;DHT22;3699;51.462;6.696;2022-12-29T09:10:10;11.90;99.90
7317;DHT22;3699;51.462;6.696;2022-12-29T09:12:37;11.90;99.90
7317;DHT22;3699;51.462;6.696;2022-12-29T09:15:07;11.90;99.90
7317;DHT22;3699;51.462;6.696;2022-12-29T09:17:34;11.90;99.90
7317;DHT22;3699;51.462;6.696;2022-12-29T09:20:11;12.00;99.90
7317;DHT22;3699;51.462;6.696;2022-12-29T09:22:38;12.00;99.90
7317;DHT22;3699;51.462;6.696;2022-12-29T09:25:05;12.10;99.90
7317;DHT22;3699;51.462;6.696;2022-12-29T09:27:32;12.00;99.90
7317;DHT22;3699;51.462;6.696;2022-12-29T09:29:59;12.00;99.90
7317;DHT22;3699;51.462;6.696;2022-12-29T09:32:27;12.00;99.90
7317;DHT22;3699;51.462;6.696;2022-12-29T09:34:53;12.00;99.90
7317;DHT22;3699;51.462;6.696;2022-12-29T09:37:20;12.00;99.90
7317;DHT22;3699;51.462;6.696;2022-12-29T09:39:47;11.90;99.90
7317;DHT22;3699;51.462;6.696;2022-12-29T09:42:18;11.90;99.90
7317;DHT22;3699;51.462;6.696;2022-12-29T09:44:56;11.90;99.90
7317;DHT22;3699;51.462;6.696;2022-12-29T09:47:28;12.00;99.90
7317;DHT22;3699;51.462;6.696;2022-12-29T09:49:59;12.00;99.90
7317;DHT22;3699;51.462;6.696;2022-12-29T09:52:31;12.10;99.90
7317;DHT22;3699;51.462;6.696;2022-12-29T09:55:01;12.00;99.90
7317;DHT22;3699;51.462;6.696;2022-12-29T09:57:33;12.00;99.90
7317;DHT22;3699;51.462;6.696;2022-12-29T10:00:03;12.10;99.90
7317;DHT22;3699;51.462;6.696;2022-12-29T10:02:38;12.10;99.90
7317;DHT22;3699;51.462;6.696;2022-12-29T10:05:16;12.10;99.90
7317;DHT22;3699;51.462;6.696;2022-12-29T10:07:49;12.20;99.90
7317;DHT22;3699;51.462;6.696;2022-12-29T10:10:29;12.20;99.90
7317;DHT22;3699;51.462;6.696;2022-12-29T10:13:02;12.20;99.90
7317;DHT22;3699;51.462;6.696;2022-12-29T10:15:46;12.20;99.90
7317;DHT22;3699;51.462;6.696;2022-12-29T10:18:38;12.20;99.90
7317;DHT22;3699;51.462;6.696;2022-12-29T10:21:16;12.20;99.90
7317;DHT22;3699;51.462;6.696;2022-12-29T10:23:47;12.30;99.90
7317;DHT22;3699;51.462;6.696;2022-12-29T10:26:17;12.30;99.90
7317;DHT22;3699;51.462;6.696;2022-12-29T10:28:47;12.30;99.90
7317;DHT22;3699;51.462;6.696;2022-12-29T10:31:20;12.30;99.90
7317;DHT22;3699;51.462;6.696;2022-12-29T10:33:51;12.30;99.90
7317;DHT22;3699;51.462;6.696;2022-12-29T10:36:25;12.20;99.90
7317;DHT22;3699;51.462;6.696;2022-12-29T10:39:01;12.20;99.90
7317;DHT22;3699;51.462;6.696;2022-12-29T10:41:36;12.20;99.90
7317;DHT22;3699;51.462;6.696;2022-12-29T10:44:04;12.30;99.90
7317;DHT22;3699;51.462;6.696;2022-12-29T10:46:34;12.20;99.90
7317;DHT22;3699;51.462;6.696;2022-12-29T10:49:04;12.20;99.90
7317;DHT22;3699;51.462;6.696;2022-12-29T10:51:35;12.30;99.90
7317;DHT22;3699;51.462;6.696;2022-12-29T10:54:06;12.30;99.90
7317;DHT22;3699;51.462;6.696;2022-12-29T10:56:40;12.20;99.90
7317;DHT22;3699;51.462;6.696;2022-12-29T10:59:14;12.30;99.90
7317;DHT22;3699;51.462;6.696;2022-12-29T11:01:49;12.20;99.90
7317;DHT22;3699;51.462;6.696;2022-12-29T11:04:35;12.10;99.90
7317;DHT22;3699;51.462;6.696;2022-12-29T11:07:08;12.20;99.90
7317;DHT22;3699;51.462;6.696;2022-12-29T11:09:37;12.20;99.90
7317;DHT22;3699;51.462;6.696;2022-12-29T11:12:19;12.20;99.90
7317;DHT22;3699;51.462;6.696;2022-12-29T11:14:46;12.20;99.90
7317;DHT22;3699;51.462;6.696;2022-12-29T11:17:15;12.20;99.90
7317;DHT22;3699;51.462;6.696;2022-12-29T11:19:43;12.10;99.90
7317;DHT22;3699;51.462;6.696;2022-12-29T11:22:19;12.30;99.90
7317;DHT22;3699;51.462;6.696;2022-12-29T11:24:48;11.90;99.90
7317;DHT22;3699;51.462;6.696;2022-12-29T11:27:16;12.40;99.90
7317;DHT22;3699;51.462;6.696;2022-12-29T11:29:45;12.40;99.90
7317;DHT22;3699;51.462;6.696;2022-12-29T11:32:16;12.50;99.90
7317;DHT22;3699;51.462;6.696;2022-12-29T11:34:45;12.40;99.90
7317;DHT22;3699;51.462;6.696;2022-12-29T11:37:14;12.40;99.90
7317;DHT22;3699;51.462;6.696;2022-12-29T11:39:48;12.40;99.90
7317;DHT22;3699;51.462;6.696;2022-12-29T11:42:18;12.40;99.90
7317;DHT22;3699;51.462;6.696;2022-12-29T11:44:48;12.40;99.90
7317;DHT22;3699;51.462;6.696;2022-12-29T11:47:25;12.60;99.90
7317;DHT22;3699;51.462;6.696;2022-12-29T11:49:57;12.40;99.90
7317;DHT22;3699;51.462;6.696;2022-12-29T11:52:27;12.40;99.90
7317;DHT22;3699;51.462;6.696;2022-12-29T11:54:55;12.40;99.90
7317;DHT22;3699;51.462;6.696;2022-12-29T11:57:24;12.50;99.90
7317;DHT22;3699;51.462;6.696;2022-12-29T11:59:52;12.40;99.90
7317;DHT22;3699;51.462;6.696;2022-12-29T12:02:33;12.70;99.90
7317;DHT22;3699;51.462;6.696;2022-12-29T12:05:08;12.70;99.90
7317;DHT22;3699;51.462;6.696;2022-12-29T12:07:41;12.80;99.90
7317;DHT22;3699;51.462;6.696;2022-12-29T12:10:19;12.70;99.90
7317;DHT22;3699;51.462;6.696;2022-12-29T12:12:53;12.80;99.90
7317;DHT22;3699;51.462;6.696;2022-12-29T12:15:25;12.70;99.90
7317;DHT22;3699;51.462;6.696;2022-12-29T12:18:00;12.70;99.90
7317;DHT22;3699;51.462;6.696;2022-12-29T12:20:38;12.70;99.90
7317;DHT22;3699;51.462;6.696;2022-12-29T12:23:15;12.60;99.90
7317;DHT22;3699;51.462;6.696;2022-12-29T12:25:51;12.50;99.90
7317;DHT22;3699;51.462;6.696;2022-12-29T12:28:24;12.50;99.90
7317;DHT22;3699;51.462;6.696;2022-12-29T12:30:55;12.40;99.90
7317;DHT22;3699;51.462;6.696;2022-12-29T12:33:27;12.40;99.90
7317;DHT22;3699;51.462;6.696;2022-12-29T12:36:12;12.40;99.90
7317;DHT22;3699;51.462;6.696;2022-12-29T12:38:44;12.40;99.90
7317;DHT22;3699;51.462;6.696;2022-12-29T12:41:17;12.30;99.90
7317;DHT22;3699;51.462;6.696;2022-12-29T12:43:49;12.40;99.90
7317;DHT22;3699;51.462;6.696;2022-12-29T12:46:40;12.30;99.90
7317;DHT22;3699;51.462;6.696;2022-12-29T12:49:31;12.30;99.90
7317;DHT22;3699;51.462;6.696;2022-12-29T12:52:08;12.30;99.90
7317;DHT22;3699;51.462;6.696;2022-12-29T12:54:51;12.30;99.90
7317;DHT22;3699;51.462;6.696;2022-12-29T12:57:27;12.20;99.90
7317;DHT22;3699;51.462;6.696;2022-12-29T13:00:01;12.20;99.90
7317;DHT22;3699;51.462;6.696;2022-12-29T13:02:37;12.20;99.90
7317;DHT22;3699;51.462;6.696;2022-12-29T13:05:29;12.30;99.90
7317;DHT22;3699;51.462;6.696;2022-12-29T13:08:13;12.30;99.90
7317;DHT22;3699;51.462;6.696;2022-12-29T13:10:50;12.30;99.90
7317;DHT22;3699;51.462;6.696;2022-12-29T13:13:34;12.40;99.90
7317;DHT22;3699;51.462;6.696;2022-12-29T13:16:10;12.40;99.90
7317;DHT22;3699;51.462;6.696;2022-12-29T13:18:46;12.40;99.90
7317;DHT22;3699;51.462;6.696;2022-12-29T13:21:27;12.40;99.90
7317;DHT22;3699;51.462;6.696;2022-12-29T13:24:02;12.60;99.90
7317;DHT22;3699;51.462;6.696;2022-12-29T13:26:37;12.30;99.90
7317;DHT22;3699;51.462;6.696;2022-12-29T13:29:12;12.40;99.90
7317;DHT22;3699;51.462;6.696;2022-12-29T13:31:45;12.30;99.90
7317;DHT22;3699;51.462;6.696;2022-12-29T13:34:24;12.30;99.90
7317;DHT22;3699;51.462;6.696;2022-12-29T13:36:58;12.30;99.90
7317;DHT22;3699;51.462;6.696;2022-12-29T13:39:31;12.30;99.90
7317;DHT22;3699;51.462;6.696;2022-12-29T13:42:01;12.30;99.90
7317;DHT22;3699;51.462;6.696;2022-12-29T13:44:31;12.30;99.90
7317;DHT22;3699;51.462;6.696;2022-12-29T13:47:02;12.30;99.90
7317;DHT22;3699;51.462;6.696;2022-12-29T13:49:33;12.30;99.90
7317;DHT22;3699;51.462;6.696;2022-12-29T13:52:08;12.30;99.90
7317;DHT22;3699;51.462;6.696;2022-12-29T13:54:44;12.20;99.90
7317;DHT22;3699;51.462;6.696;2022-12-29T13:57:23;12.20;99.90
7317;DHT22;3699;51.462;6.696;2022-12-29T13:59:57;12.20;99.90
7317;DHT22;3699;51.462;6.696;2022-12-29T14:02:41;12.10;99.90
7317;DHT22;3699;51.462;6.696;2022-12-29T14:05:27;12.00;99.90
7317;DHT22;3699;51.462;6.696;2022-12-29T14:07:58;12.00;99.90
7317;DHT22;3699;51.462;6.696;2022-12-29T14:10:29;12.10;99.90
7317;DHT22;3699;51.462;6.696;2022-12-29T14:13:04;11.90;99.90
7317;DHT22;3699;51.462;6.696;2022-12-29T14:15:32;11.90;99.90
7317;DHT22;3699;51.462;6.696;2022-12-29T14:18:13;11.70;99.90
7317;DHT22;3699;51.462;6.696;2022-12-29T14:20:49;11.70;99.90
7317;DHT22;3699;51.462;6.696;2022-12-29T14:23:27;11.70;99.90
7317;DHT22;3699;51.462;6.696;2022-12-29T14:25:59;11.60;99.90
7317;DHT22;3699;51.462;6.696;2022-12-29T14:28:27;11.60;99.90
7317;DHT22;3699;51.462;6.696;2022-12-29T14:30:55;11.60;99.90
7317;DHT22;3699;51.462;6.696;2022-12-29T14:33:22;11.60;99.90
7317;DHT22;3699;51.462;6.696;2022-12-29T14:35:53;11.60;99.90
7317;DHT22;3699;51.462;6.696;2022-12-29T14:38:28;11.60;99.90
7317;DHT22;3699;51.462;6.696;2022-12-29T14:41:23;11.50;99.90
7317;DHT22;3699;51.462;6.696;2022-12-29T14:43:53;11.50;99.90
7317;DHT22;3699;51.462;6.696;2022-12-29T14:46:21;11.50;99.90
7317;DHT22;3699;51.462;6.696;2022-12-29T14:48:54;11.60;99.90
7317;DHT22;3699;51.462;6.696;2022-12-29T14:51:30;11.60;99.90
7317;DHT22;3699;51.462;6.696;2022-12-29T14:53:58;11.50;99.90
7317;DHT22;3699;51.462;6.696;2022-12-29T14:56:28;11.60;99.90
7317;DHT22;3699;51.462;6.696;2022-12-29T14:58:58;11.50;99.90
7317;DHT22;3699;51.462;6.696;2022-12-29T15:01:38;11.40;99.90
7317;DHT22;3699;51.462;6.696;2022-12-29T15:04:15;11.50;99.90
7317;DHT22;3699;51.462;6.696;2022-12-29T15:06:43;11.50;99.90
7317;DHT22;3699;51.462;6.696;2022-12-29T15:09:19;11.40;99.90
7317;DHT22;3699;51.462;6.696;2022-12-29T15:11:53;11.50;99.90
7317;DHT22;3699;51.462;6.696;2022-12-29T15:14:48;11.40;99.90
7317;DHT22;3699;51.462;6.696;2022-12-29T15:17:24;11.50;99.90
7317;DHT22;3699;51.462;6.696;2022-12-29T15:19:51;11.50;99.90
7317;DHT22;3699;51.462;6.696;2022-12-29T15:22:18;11.50;99.90
7317;DHT22;3699;51.462;6.696;2022-12-29T15:24:46;11.60;99.90
7317;DHT22;3699;51.462;6.696;2022-12-29T15:27:16;11.40;99.90
7317;DHT22;3699;51.462;6.696;2022-12-29T15:29:46;11.40;99.90
7317;DHT22;3699;51.462;6.696;2022-12-29T15:32:19;11.40;99.90
7317;DHT22;3699;51.462;6.696;2022-12-29T15:34:48;11.30;99.90
7317;DHT22;3699;51.462;6.696;2022-12-29T15:37:17;11.30;99.90
7317;DHT22;3699;51.462;6.696;2022-12-29T15:39:45;11.30;99.90
7317;DHT22;3699;51.462;6.696;2022-12-29T15:42:27;11.30;99.90
7317;DHT22;3699;51.462;6.696;2022-12-29T15:44:56;11.30;99.90
7317;DHT22;3699;51.462;6.696;2022-12-29T15:47:25;11.30;99.90
7317;DHT22;3699;51.462;6.696;2022-12-29T15:50:01;11.30;99.90
7317;DHT22;3699;51.462;6.696;2022-12-29T15:52:31;11.20;99.90
7317;DHT22;3699;51.462;6.696;2022-12-29T15:54:58;11.20;99.90
7317;DHT22;3699;51.462;6.696;2022-12-29T15:57:29;11.20;99.90
7317;DHT22;3699;51.462;6.696;2022-12-29T15:59:58;11.20;99.90
7317;DHT22;3699;51.462;6.696;2022-12-29T16:02:25;11.20;99.90
7317;DHT22;3699;51.462;6.696;2022-12-29T16:04:53;11.10;99.90
7317;DHT22;3699;51.462;6.696;2022-12-29T16:07:24;11.10;99.90
7317;DHT22;3699;51.462;6.696;2022-12-29T16:09:54;11.10;99.90
7317;DHT22;3699;51.462;6.696;2022-12-29T16:12:23;11.10;99.90
7317;DHT22;3699;51.462;6.696;2022-12-29T16:14:54;13.30;99.90
7317;DHT22;3699;51.462;6.696;2022-12-29T16:17:25;11.10;99.90
7317;DHT22;3699;51.462;6.696;2022-12-29T16:19:55;11.00;99.90
7317;DHT22;3699;51.462;6.696;2022-12-29T16:22:27;10.90;99.90
7317;DHT22;3699;51.462;6.696;2022-12-29T16:24:57;10.90;99.90
7317;DHT22;3699;51.462;6.696;2022-12-29T16:27:31;11.00;99.90
7317;DHT22;3699;51.462;6.696;2022-12-29T16:30:04;10.90;99.90
7317;DHT22;3699;51.462;6.696;2022-12-29T16:32:32;10.90;99.90